sensor_id;sensor_type;location;lat;lon;timestamp;P1;durP1;ratioP1;P2;durP2;ratioP2
57087;SDS011;42965;52.846;6.614;2022-10-16T00:00:39;9.82;;;3.53;;
57087;SDS011;42965;52.846;6.614;2022-10-16T00:03:08;9.05;;;3.42;;
57087;SDS011;42965;52.846;6.614;2022-10-16T00:05:39;9.40;;;3.30;;
57087;SDS011;42965;52.846;6.614;2022-10-16T00:08:07;7.13;;;3.13;;
57087;SDS011;42965;52.846;6.614;2022-10-16T00:10:34;9.70;;;3.67;;
57087;SDS011;42965;52.846;6.614;2022-10-16T00:13:02;9.25;;;3.15;;
57087;SDS011;42965;52.846;6.614;2022-10-16T00:15:29;9.13;;;3.28;;
57087;SDS011;42965;52.846;6.614;2022-10-16T00:17:55;9.20;;;3.45;;
57087;SDS011;42965;52.846;6.614;2022-10-16T00:20:22;6.82;;;2.97;;
57087;SDS011;42965;52.846;6.614;2022-10-16T00:23:07;7.85;;;3.33;;
57087;SDS011;42965;52.846;6.614;2022-10-16T00:25:33;9.25;;;2.92;;
57087;SDS011;42965;52.846;6.614;2022-10-16T00:28:00;6.70;;;3.35;;
57087;SDS011;42965;52.846;6.614;2022-10-16T00:30:26;11.18;;;2.80;;
57087;SDS011;42965;52.846;6.614;2022-10-16T00:32:53;6.22;;;2.78;;
57087;SDS011;42965;52.846;6.614;2022-10-16T00:35:20;8.05;;;3.50;;
57087;SDS011;42965;52.846;6.614;2022-10-16T00:37:47;9.55;;;3.10;;
57087;SDS011;42965;52.846;6.614;2022-10-16T00:40:13;6.28;;;2.90;;
57087;SDS011;42965;52.846;6.614;2022-10-16T00:42:39;8.00;;;2.83;;
57087;SDS011;42965;52.846;6.614;2022-10-16T00:45:07;7.93;;;3.40;;
57087;SDS011;42965;52.846;6.614;2022-10-16T00:47:37;7.10;;;3.10;;
57087;SDS011;42965;52.846;6.614;2022-10-16T00:52:43;7.78;;;3.15;;
57087;SDS011;42965;52.846;6.614;2022-10-16T00:55:13;5.88;;;2.40;;
57087;SDS011;42965;52.846;6.614;2022-10-16T00:57:40;10.95;;;3.92;;
57087;SDS011;42965;52.846;6.614;2022-10-16T01:00:09;11.57;;;3.25;;
57087;SDS011;42965;52.846;6.614;2022-10-16T01:02:37;8.48;;;3.78;;
57087;SDS011;42965;52.846;6.614;2022-10-16T01:05:03;7.50;;;2.90;;
57087;SDS011;42965;52.846;6.614;2022-10-16T01:07:40;7.20;;;2.80;;
57087;SDS011;42965;52.846;6.614;2022-10-16T01:13:05;9.02;;;3.08;;
57087;SDS011;42965;52.846;6.614;2022-10-16T01:18:18;7.75;;;2.80;;
57087;SDS011;42965;52.846;6.614;2022-10-16T01:21:03;10.35;;;3.53;;
57087;SDS011;42965;52.846;6.614;2022-10-16T01:23:36;7.55;;;2.97;;
57087;SDS011;42965;52.846;6.614;2022-10-16T01:26:15;8.32;;;3.13;;
57087;SDS011;42965;52.846;6.614;2022-10-16T01:29:09;4.80;;;2.60;;
57087;SDS011;42965;52.846;6.614;2022-10-16T01:31:50;8.25;;;3.65;;
57087;SDS011;42965;52.846;6.614;2022-10-16T01:34:25;7.97;;;3.47;;
57087;SDS011;42965;52.846;6.614;2022-10-16T01:37:22;9.15;;;3.78;;
57087;SDS011;42965;52.846;6.614;2022-10-16T01:40:03;10.57;;;3.42;;
57087;SDS011;42965;52.846;6.614;2022-10-16T01:42:35;6.72;;;2.80;;
57087;SDS011;42965;52.846;6.614;2022-10-16T01:45:07;8.15;;;2.70;;
57087;SDS011;42965;52.846;6.614;2022-10-16T01:47:36;5.97;;;2.80;;
57087;SDS011;42965;52.846;6.614;2022-10-16T01:50:04;4.80;;;2.78;;
57087;SDS011;42965;52.846;6.614;2022-10-16T01:52:34;10.38;;;3.90;;
57087;SDS011;42965;52.846;6.614;2022-10-16T01:55:04;7.93;;;3.40;;
57087;SDS011;42965;52.846;6.614;2022-10-16T01:57:34;7.22;;;2.88;;
57087;SDS011;42965;52.846;6.614;2022-10-16T02:00:05;5.85;;;2.70;;
57087;SDS011;42965;52.846;6.614;2022-10-16T02:02:39;9.23;;;3.38;;
57087;SDS011;42965;52.846;6.614;2022-10-16T02:05:10;7.93;;;3.85;;
57087;SDS011;42965;52.846;6.614;2022-10-16T02:10:16;6.03;;;3.13;;
57087;SDS011;42965;52.846;6.614;2022-10-16T02:12:55;9.25;;;3.60;;
57087;SDS011;42965;52.846;6.614;2022-10-16T02:15:27;6.53;;;3.38;;
57087;SDS011;42965;52.846;6.614;2022-10-16T02:17:54;8.20;;;3.25;;
57087;SDS011;42965;52.846;6.614;2022-10-16T02:20:22;7.13;;;3.30;;
57087;SDS011;42965;52.846;6.614;2022-10-16T02:22:54;6.90;;;3.20;;
57087;SDS011;42965;52.846;6.614;2022-10-16T02:25:41;9.90;;;3.47;;
57087;SDS011;42965;52.846;6.614;2022-10-16T02:28:12;6.32;;;2.97;;
57087;SDS011;42965;52.846;6.614;2022-10-16T02:30:52;5.78;;;3.55;;
57087;SDS011;42965;52.846;6.614;2022-10-16T02:33:25;8.55;;;3.25;;
57087;SDS011;42965;52.846;6.614;2022-10-16T02:35:54;7.20;;;4.47;;
57087;SDS011;42965;52.846;6.614;2022-10-16T02:38:23;5.72;;;3.05;;
57087;SDS011;42965;52.846;6.614;2022-10-16T02:40:51;8.65;;;3.35;;
57087;SDS011;42965;52.846;6.614;2022-10-16T02:43:18;6.95;;;4.10;;
57087;SDS011;42965;52.846;6.614;2022-10-16T02:45:45;6.72;;;3.55;;
57087;SDS011;42965;52.846;6.614;2022-10-16T02:48:11;6.85;;;3.35;;
57087;SDS011;42965;52.846;6.614;2022-10-16T02:50:38;10.63;;;3.33;;
57087;SDS011;42965;52.846;6.614;2022-10-16T02:53:04;7.03;;;3.55;;
57087;SDS011;42965;52.846;6.614;2022-10-16T02:55:31;5.78;;;3.50;;
57087;SDS011;42965;52.846;6.614;2022-10-16T02:57:59;6.85;;;3.83;;
57087;SDS011;42965;52.846;6.614;2022-10-16T03:00:25;7.28;;;3.55;;
57087;SDS011;42965;52.846;6.614;2022-10-16T03:02:53;6.10;;;3.60;;
57087;SDS011;42965;52.846;6.614;2022-10-16T03:05:20;7.32;;;2.97;;
57087;SDS011;42965;52.846;6.614;2022-10-16T03:07:46;5.47;;;3.13;;
57087;SDS011;42965;52.846;6.614;2022-10-16T03:10:13;6.70;;;3.00;;
57087;SDS011;42965;52.846;6.614;2022-10-16T03:12:40;6.88;;;3.10;;
57087;SDS011;42965;52.846;6.614;2022-10-16T03:15:07;6.32;;;3.15;;
57087;SDS011;42965;52.846;6.614;2022-10-16T03:17:34;7.55;;;3.78;;
57087;SDS011;42965;52.846;6.614;2022-10-16T03:20:02;8.60;;;3.50;;
57087;SDS011;42965;52.846;6.614;2022-10-16T03:22:29;6.85;;;3.40;;
57087;SDS011;42965;52.846;6.614;2022-10-16T03:24:56;8.40;;;3.50;;
57087;SDS011;42965;52.846;6.614;2022-10-16T03:27:22;5.15;;;3.50;;
57087;SDS011;42965;52.846;6.614;2022-10-16T03:29:49;6.75;;;3.58;;
57087;SDS011;42965;52.846;6.614;2022-10-16T03:32:15;7.35;;;3.42;;
57087;SDS011;42965;52.846;6.614;2022-10-16T03:34:42;7.32;;;3.40;;
57087;SDS011;42965;52.846;6.614;2022-10-16T03:37:09;7.93;;;3.58;;
57087;SDS011;42965;52.846;6.614;2022-10-16T03:39:36;6.38;;;3.35;;
57087;SDS011;42965;52.846;6.614;2022-10-16T03:42:02;7.57;;;3.83;;
57087;SDS011;42965;52.846;6.614;2022-10-16T03:44:29;5.88;;;3.80;;
57087;SDS011;42965;52.846;6.614;2022-10-16T03:46:56;7.90;;;4.05;;
57087;SDS011;42965;52.846;6.614;2022-10-16T03:49:22;8.95;;;3.83;;
57087;SDS011;42965;52.846;6.614;2022-10-16T03:51:49;5.45;;;3.55;;
57087;SDS011;42965;52.846;6.614;2022-10-16T03:54:15;6.25;;;3.50;;
57087;SDS011;42965;52.846;6.614;2022-10-16T03:56:42;8.13;;;4.47;;
57087;SDS011;42965;52.846;6.614;2022-10-16T03:59:08;6.60;;;3.88;;
57087;SDS011;42965;52.846;6.614;2022-10-16T04:01:35;8.35;;;3.95;;
57087;SDS011;42965;52.846;6.614;2022-10-16T04:04:02;6.72;;;3.75;;
57087;SDS011;42965;52.846;6.614;2022-10-16T04:06:28;5.63;;;3.95;;
57087;SDS011;42965;52.846;6.614;2022-10-16T04:08:55;7.57;;;4.43;;
57087;SDS011;42965;52.846;6.614;2022-10-16T04:11:22;6.28;;;4.20;;
57087;SDS011;42965;52.846;6.614;2022-10-16T04:13:48;6.95;;;5.13;;
57087;SDS011;42965;52.846;6.614;2022-10-16T04:16:14;6.43;;;3.90;;
57087;SDS011;42965;52.846;6.614;2022-10-16T04:18:41;6.53;;;4.53;;
57087;SDS011;42965;52.846;6.614;2022-10-16T04:21:08;9.02;;;4.40;;
57087;SDS011;42965;52.846;6.614;2022-10-16T04:23:35;7.90;;;5.22;;
57087;SDS011;42965;52.846;6.614;2022-10-16T04:26:02;10.13;;;5.20;;
57087;SDS011;42965;52.846;6.614;2022-10-16T04:28:29;8.13;;;4.50;;
57087;SDS011;42965;52.846;6.614;2022-10-16T04:30:55;8.30;;;4.70;;
57087;SDS011;42965;52.846;6.614;2022-10-16T04:33:22;10.75;;;4.80;;
57087;SDS011;42965;52.846;6.614;2022-10-16T04:35:48;8.02;;;5.00;;
57087;SDS011;42965;52.846;6.614;2022-10-16T04:38:22;7.68;;;4.82;;
57087;SDS011;42965;52.846;6.614;2022-10-16T04:40:49;5.78;;;4.50;;
57087;SDS011;42965;52.846;6.614;2022-10-16T04:43:15;8.00;;;5.60;;
57087;SDS011;42965;52.846;6.614;2022-10-16T04:45:42;9.73;;;5.47;;
57087;SDS011;42965;52.846;6.614;2022-10-16T04:48:08;8.48;;;4.72;;
57087;SDS011;42965;52.846;6.614;2022-10-16T04:50:35;6.90;;;5.28;;
57087;SDS011;42965;52.846;6.614;2022-10-16T04:53:05;9.13;;;5.15;;
57087;SDS011;42965;52.846;6.614;2022-10-16T04:55:32;6.25;;;4.72;;
57087;SDS011;42965;52.846;6.614;2022-10-16T04:57:59;9.00;;;5.60;;
57087;SDS011;42965;52.846;6.614;2022-10-16T05:00:25;10.32;;;5.80;;
57087;SDS011;42965;52.846;6.614;2022-10-16T05:02:52;8.07;;;5.40;;
57087;SDS011;42965;52.846;6.614;2022-10-16T05:05:19;7.97;;;5.43;;
57087;SDS011;42965;52.846;6.614;2022-10-16T05:07:46;8.00;;;5.93;;
57087;SDS011;42965;52.846;6.614;2022-10-16T05:10:13;8.02;;;5.38;;
57087;SDS011;42965;52.846;6.614;2022-10-16T05:12:43;9.68;;;5.72;;
57087;SDS011;42965;52.846;6.614;2022-10-16T05:15:10;7.60;;;5.40;;
57087;SDS011;42965;52.846;6.614;2022-10-16T05:17:37;7.50;;;5.00;;
57087;SDS011;42965;52.846;6.614;2022-10-16T05:20:03;6.95;;;5.10;;
57087;SDS011;42965;52.846;6.614;2022-10-16T05:22:31;8.43;;;4.82;;
57087;SDS011;42965;52.846;6.614;2022-10-16T05:24:57;9.77;;;5.40;;
57087;SDS011;42965;52.846;6.614;2022-10-16T05:27:24;6.60;;;5.18;;
57087;SDS011;42965;52.846;6.614;2022-10-16T05:29:51;9.23;;;5.85;;
57087;SDS011;42965;52.846;6.614;2022-10-16T05:32:17;6.70;;;5.20;;
57087;SDS011;42965;52.846;6.614;2022-10-16T05:34:44;9.85;;;5.78;;
57087;SDS011;42965;52.846;6.614;2022-10-16T05:37:12;9.80;;;6.22;;
57087;SDS011;42965;52.846;6.614;2022-10-16T05:39:38;8.80;;;5.63;;
57087;SDS011;42965;52.846;6.614;2022-10-16T05:42:05;8.05;;;5.70;;
57087;SDS011;42965;52.846;6.614;2022-10-16T05:44:32;7.57;;;5.57;;
57087;SDS011;42965;52.846;6.614;2022-10-16T05:46:58;9.10;;;6.20;;
57087;SDS011;42965;52.846;6.614;2022-10-16T05:49:25;8.65;;;5.35;;
57087;SDS011;42965;52.846;6.614;2022-10-16T05:51:51;6.53;;;5.22;;
57087;SDS011;42965;52.846;6.614;2022-10-16T05:54:18;8.48;;;5.28;;
57087;SDS011;42965;52.846;6.614;2022-10-16T05:56:44;10.93;;;6.25;;
57087;SDS011;42965;52.846;6.614;2022-10-16T05:59:11;8.55;;;6.03;;
57087;SDS011;42965;52.846;6.614;2022-10-16T06:01:38;7.18;;;4.63;;
57087;SDS011;42965;52.846;6.614;2022-10-16T06:04:04;6.88;;;5.05;;
57087;SDS011;42965;52.846;6.614;2022-10-16T06:06:31;7.78;;;4.65;;
57087;SDS011;42965;52.846;6.614;2022-10-16T06:08:57;10.05;;;4.70;;
57087;SDS011;42965;52.846;6.614;2022-10-16T06:11:26;9.60;;;4.85;;
57087;SDS011;42965;52.846;6.614;2022-10-16T06:13:55;10.50;;;4.95;;
57087;SDS011;42965;52.846;6.614;2022-10-16T06:16:25;8.70;;;4.18;;
57087;SDS011;42965;52.846;6.614;2022-10-16T06:18:52;8.55;;;4.60;;
57087;SDS011;42965;52.846;6.614;2022-10-16T06:21:22;8.77;;;4.53;;
57087;SDS011;42965;52.846;6.614;2022-10-16T06:23:54;6.63;;;4.03;;
57087;SDS011;42965;52.846;6.614;2022-10-16T06:26:22;8.05;;;3.97;;
57087;SDS011;42965;52.846;6.614;2022-10-16T06:28:50;5.75;;;4.30;;
57087;SDS011;42965;52.846;6.614;2022-10-16T06:31:17;9.35;;;5.18;;
57087;SDS011;42965;52.846;6.614;2022-10-16T06:33:44;7.03;;;4.00;;
57087;SDS011;42965;52.846;6.614;2022-10-16T06:36:13;6.55;;;3.70;;
57087;SDS011;42965;52.846;6.614;2022-10-16T06:38:41;5.60;;;4.00;;
57087;SDS011;42965;52.846;6.614;2022-10-16T06:41:09;6.13;;;3.90;;
57087;SDS011;42965;52.846;6.614;2022-10-16T06:43:38;6.70;;;3.70;;
57087;SDS011;42965;52.846;6.614;2022-10-16T06:46:05;13.55;;;3.65;;
57087;SDS011;42965;52.846;6.614;2022-10-16T06:48:34;5.47;;;3.53;;
57087;SDS011;42965;52.846;6.614;2022-10-16T06:53:50;6.47;;;3.38;;
57087;SDS011;42965;52.846;6.614;2022-10-16T06:56:23;8.73;;;4.78;;
57087;SDS011;42965;52.846;6.614;2022-10-16T06:58:51;7.03;;;3.50;;
57087;SDS011;42965;52.846;6.614;2022-10-16T07:01:19;5.35;;;3.33;;
57087;SDS011;42965;52.846;6.614;2022-10-16T07:03:49;8.07;;;3.47;;
57087;SDS011;42965;52.846;6.614;2022-10-16T07:06:20;7.82;;;3.00;;
57087;SDS011;42965;52.846;6.614;2022-10-16T07:08:47;6.32;;;3.38;;
57087;SDS011;42965;52.846;6.614;2022-10-16T07:11:17;8.50;;;3.33;;
57087;SDS011;42965;52.846;6.614;2022-10-16T07:13:46;4.05;;;3.00;;
57087;SDS011;42965;52.846;6.614;2022-10-16T07:16:14;5.93;;;3.40;;
57087;SDS011;42965;52.846;6.614;2022-10-16T07:18:43;5.90;;;3.20;;
57087;SDS011;42965;52.846;6.614;2022-10-16T07:21:16;7.88;;;3.25;;
57087;SDS011;42965;52.846;6.614;2022-10-16T07:23:45;9.18;;;3.00;;
57087;SDS011;42965;52.846;6.614;2022-10-16T07:28:43;9.10;;;3.85;;
57087;SDS011;42965;52.846;6.614;2022-10-16T07:31:11;7.13;;;2.92;;
57087;SDS011;42965;52.846;6.614;2022-10-16T07:33:40;5.57;;;3.38;;
57087;SDS011;42965;52.846;6.614;2022-10-16T07:36:08;6.28;;;3.03;;
57087;SDS011;42965;52.846;6.614;2022-10-16T07:38:35;7.18;;;2.63;;
57087;SDS011;42965;52.846;6.614;2022-10-16T07:41:05;5.07;;;2.65;;
57087;SDS011;42965;52.846;6.614;2022-10-16T07:43:33;8.75;;;4.78;;
57087;SDS011;42965;52.846;6.614;2022-10-16T07:46:00;5.45;;;2.70;;
57087;SDS011;42965;52.846;6.614;2022-10-16T07:48:27;7.32;;;2.72;;
57087;SDS011;42965;52.846;6.614;2022-10-16T07:51:03;5.38;;;2.30;;
57087;SDS011;42965;52.846;6.614;2022-10-16T07:53:32;7.97;;;2.35;;
57087;SDS011;42965;52.846;6.614;2022-10-16T07:56:03;5.88;;;2.33;;
57087;SDS011;42965;52.846;6.614;2022-10-16T07:58:31;8.85;;;3.33;;
57087;SDS011;42965;52.846;6.614;2022-10-16T08:00:59;6.07;;;2.42;;
57087;SDS011;42965;52.846;6.614;2022-10-16T08:03:29;8.70;;;2.80;;
57087;SDS011;42965;52.846;6.614;2022-10-16T08:05:56;6.80;;;2.40;;
57087;SDS011;42965;52.846;6.614;2022-10-16T08:08:23;7.20;;;2.08;;
57087;SDS011;42965;52.846;6.614;2022-10-16T08:10:49;6.30;;;2.50;;
57087;SDS011;42965;52.846;6.614;2022-10-16T08:13:16;3.45;;;1.65;;
57087;SDS011;42965;52.846;6.614;2022-10-16T08:15:44;4.20;;;1.70;;
57087;SDS011;42965;52.846;6.614;2022-10-16T08:18:12;4.50;;;1.88;;
57087;SDS011;42965;52.846;6.614;2022-10-16T08:20:40;5.05;;;1.83;;
57087;SDS011;42965;52.846;6.614;2022-10-16T08:23:11;5.18;;;1.77;;
57087;SDS011;42965;52.846;6.614;2022-10-16T08:25:39;5.72;;;1.70;;
57087;SDS011;42965;52.846;6.614;2022-10-16T08:28:08;3.42;;;1.20;;
57087;SDS011;42965;52.846;6.614;2022-10-16T08:30:36;4.45;;;0.90;;
57087;SDS011;42965;52.846;6.614;2022-10-16T08:33:02;3.30;;;1.27;;
57087;SDS011;42965;52.846;6.614;2022-10-16T08:35:29;7.40;;;2.35;;
57087;SDS011;42965;52.846;6.614;2022-10-16T08:37:56;6.63;;;1.50;;
57087;SDS011;42965;52.846;6.614;2022-10-16T08:40:26;4.40;;;1.35;;
57087;SDS011;42965;52.846;6.614;2022-10-16T08:51:00;6.47;;;2.03;;
57087;SDS011;42965;52.846;6.614;2022-10-16T08:53:30;3.95;;;1.98;;
57087;SDS011;42965;52.846;6.614;2022-10-16T08:56:02;6.88;;;1.90;;
57087;SDS011;42965;52.846;6.614;2022-10-16T08:58:29;8.38;;;2.58;;
57087;SDS011;42965;52.846;6.614;2022-10-16T09:00:57;4.93;;;2.13;;
57087;SDS011;42965;52.846;6.614;2022-10-16T09:11:45;6.18;;;2.15;;
57087;SDS011;42965;52.846;6.614;2022-10-16T09:16:57;7.10;;;1.92;;
57087;SDS011;42965;52.846;6.614;2022-10-16T09:22:12;6.28;;;1.65;;
57087;SDS011;42965;52.846;6.614;2022-10-16T09:24:41;6.03;;;2.08;;
57087;SDS011;42965;52.846;6.614;2022-10-16T09:27:10;10.50;;;2.17;;
57087;SDS011;42965;52.846;6.614;2022-10-16T09:29:38;6.90;;;1.73;;
57087;SDS011;42965;52.846;6.614;2022-10-16T09:32:27;6.55;;;2.40;;
57087;SDS011;42965;52.846;6.614;2022-10-16T09:34:54;5.88;;;1.50;;
57087;SDS011;42965;52.846;6.614;2022-10-16T09:37:23;6.75;;;2.03;;
57087;SDS011;42965;52.846;6.614;2022-10-16T09:39:51;7.47;;;1.75;;
57087;SDS011;42965;52.846;6.614;2022-10-16T09:42:23;8.55;;;1.67;;
57087;SDS011;42965;52.846;6.614;2022-10-16T09:44:57;7.85;;;2.28;;
57087;SDS011;42965;52.846;6.614;2022-10-16T09:47:25;9.23;;;2.47;;
57087;SDS011;42965;52.846;6.614;2022-10-16T09:49:58;7.68;;;2.15;;
57087;SDS011;42965;52.846;6.614;2022-10-16T09:52:29;9.60;;;2.60;;
57087;SDS011;42965;52.846;6.614;2022-10-16T09:54:58;11.30;;;2.33;;
57087;SDS011;42965;52.846;6.614;2022-10-16T09:57:27;7.15;;;2.55;;
57087;SDS011;42965;52.846;6.614;2022-10-16T09:59:54;8.35;;;2.15;;
57087;SDS011;42965;52.846;6.614;2022-10-16T10:02:43;8.25;;;2.10;;
57087;SDS011;42965;52.846;6.614;2022-10-16T10:05:25;8.48;;;2.05;;
57087;SDS011;42965;52.846;6.614;2022-10-16T10:07:56;8.48;;;2.05;;
57087;SDS011;42965;52.846;6.614;2022-10-16T10:10:39;10.35;;;2.55;;
57087;SDS011;42965;52.846;6.614;2022-10-16T10:13:29;9.63;;;2.83;;
57087;SDS011;42965;52.846;6.614;2022-10-16T10:15:54;9.88;;;2.25;;
57087;SDS011;42965;52.846;6.614;2022-10-16T10:18:21;6.70;;;1.88;;
57087;SDS011;42965;52.846;6.614;2022-10-16T10:21:02;7.80;;;2.38;;
57087;SDS011;42965;52.846;6.614;2022-10-16T10:23:30;8.43;;;3.03;;
57087;SDS011;42965;52.846;6.614;2022-10-16T10:26:07;6.25;;;2.22;;
57087;SDS011;42965;52.846;6.614;2022-10-16T10:28:58;5.93;;;1.50;;
57087;SDS011;42965;52.846;6.614;2022-10-16T10:31:58;12.20;;;2.35;;
57087;SDS011;42965;52.846;6.614;2022-10-16T10:34:49;8.65;;;2.05;;
57087;SDS011;42965;52.846;6.614;2022-10-16T10:39:56;9.00;;;3.00;;
57087;SDS011;42965;52.846;6.614;2022-10-16T10:43:00;10.38;;;2.22;;
57087;SDS011;42965;52.846;6.614;2022-10-16T10:45:47;11.38;;;2.10;;
57087;SDS011;42965;52.846;6.614;2022-10-16T10:48:30;10.80;;;2.33;;
57087;SDS011;42965;52.846;6.614;2022-10-16T10:51:25;8.43;;;2.00;;
57087;SDS011;42965;52.846;6.614;2022-10-16T10:54:14;9.13;;;2.58;;
57087;SDS011;42965;52.846;6.614;2022-10-16T10:56:57;10.48;;;2.10;;
57087;SDS011;42965;52.846;6.614;2022-10-16T11:08:16;9.82;;;1.88;;
57087;SDS011;42965;52.846;6.614;2022-10-16T11:13:21;9.13;;;2.17;;
57087;SDS011;42965;52.846;6.614;2022-10-16T11:16:00;7.15;;;2.00;;
57087;SDS011;42965;52.846;6.614;2022-10-16T11:21:35;6.50;;;1.67;;
57087;SDS011;42965;52.846;6.614;2022-10-16T11:24:23;8.68;;;1.75;;
57087;SDS011;42965;52.846;6.614;2022-10-16T11:27:07;8.15;;;1.80;;
57087;SDS011;42965;52.846;6.614;2022-10-16T11:29:35;8.00;;;2.03;;
57087;SDS011;42965;52.846;6.614;2022-10-16T11:32:24;9.75;;;2.50;;
57087;SDS011;42965;52.846;6.614;2022-10-16T11:35:00;8.55;;;2.35;;
57087;SDS011;42965;52.846;6.614;2022-10-16T11:37:38;6.57;;;2.10;;
57087;SDS011;42965;52.846;6.614;2022-10-16T11:42:54;11.30;;;2.45;;
57087;SDS011;42965;52.846;6.614;2022-10-16T11:45:33;8.68;;;1.67;;
57087;SDS011;42965;52.846;6.614;2022-10-16T11:50:39;7.05;;;3.47;;
57087;SDS011;42965;52.846;6.614;2022-10-16T11:53:22;10.43;;;4.45;;
57087;SDS011;42965;52.846;6.614;2022-10-16T11:55:56;10.40;;;2.55;;
57087;SDS011;42965;52.846;6.614;2022-10-16T12:01:17;8.10;;;2.03;;
57087;SDS011;42965;52.846;6.614;2022-10-16T12:03:59;8.55;;;2.28;;
57087;SDS011;42965;52.846;6.614;2022-10-16T12:06:42;9.65;;;2.45;;
57087;SDS011;42965;52.846;6.614;2022-10-16T12:09:31;10.38;;;2.40;;
57087;SDS011;42965;52.846;6.614;2022-10-16T12:12:02;7.50;;;2.95;;
57087;SDS011;42965;52.846;6.614;2022-10-16T12:17:00;9.30;;;2.13;;
57087;SDS011;42965;52.846;6.614;2022-10-16T12:19:31;9.50;;;1.90;;
57087;SDS011;42965;52.846;6.614;2022-10-16T12:21:59;8.95;;;1.92;;
57087;SDS011;42965;52.846;6.614;2022-10-16T12:24:37;10.30;;;1.95;;
57087;SDS011;42965;52.846;6.614;2022-10-16T12:27:30;9.38;;;1.80;;
57087;SDS011;42965;52.846;6.614;2022-10-16T12:30:02;8.35;;;1.85;;
57087;SDS011;42965;52.846;6.614;2022-10-16T12:32:33;7.35;;;1.92;;
57087;SDS011;42965;52.846;6.614;2022-10-16T12:35:16;10.93;;;2.80;;
57087;SDS011;42965;52.846;6.614;2022-10-16T12:37:45;9.73;;;2.05;;
57087;SDS011;42965;52.846;6.614;2022-10-16T12:40:12;9.23;;;2.05;;
57087;SDS011;42965;52.846;6.614;2022-10-16T12:42:42;8.57;;;1.57;;
57087;SDS011;42965;52.846;6.614;2022-10-16T12:45:25;6.38;;;1.63;;
57087;SDS011;42965;52.846;6.614;2022-10-16T12:47:57;8.02;;;2.13;;
57087;SDS011;42965;52.846;6.614;2022-10-16T12:53:00;7.40;;;2.15;;
57087;SDS011;42965;52.846;6.614;2022-10-16T12:55:30;5.70;;;1.50;;
57087;SDS011;42965;52.846;6.614;2022-10-16T12:58:13;8.02;;;1.63;;
57087;SDS011;42965;52.846;6.614;2022-10-16T13:11:52;9.18;;;1.88;;
57087;SDS011;42965;52.846;6.614;2022-10-16T13:14:47;9.02;;;2.10;;
57087;SDS011;42965;52.846;6.614;2022-10-16T13:23:12;7.22;;;1.88;;
57087;SDS011;42965;52.846;6.614;2022-10-16T13:25:44;7.45;;;1.70;;
57087;SDS011;42965;52.846;6.614;2022-10-16T13:28:28;7.97;;;2.05;;
57087;SDS011;42965;52.846;6.614;2022-10-16T13:30:58;12.07;;;2.92;;
57087;SDS011;42965;52.846;6.614;2022-10-16T13:33:32;7.32;;;1.55;;
57087;SDS011;42965;52.846;6.614;2022-10-16T13:36:02;7.53;;;2.00;;
57087;SDS011;42965;52.846;6.614;2022-10-16T13:38:30;8.88;;;2.20;;
57087;SDS011;42965;52.846;6.614;2022-10-16T13:40:59;9.35;;;1.80;;
57087;SDS011;42965;52.846;6.614;2022-10-16T13:43:34;9.48;;;1.90;;
57087;SDS011;42965;52.846;6.614;2022-10-16T13:46:16;7.60;;;1.75;;
57087;SDS011;42965;52.846;6.614;2022-10-16T13:48:59;7.80;;;1.63;;
57087;SDS011;42965;52.846;6.614;2022-10-16T13:51:30;8.35;;;2.10;;
57087;SDS011;42965;52.846;6.614;2022-10-16T13:53:58;9.75;;;1.92;;
57087;SDS011;42965;52.846;6.614;2022-10-16T13:56:25;8.32;;;1.90;;
57087;SDS011;42965;52.846;6.614;2022-10-16T14:01:32;10.07;;;2.30;;
57087;SDS011;42965;52.846;6.614;2022-10-16T14:04:11;8.80;;;2.25;;
57087;SDS011;42965;52.846;6.614;2022-10-16T14:06:45;10.23;;;1.73;;
57087;SDS011;42965;52.846;6.614;2022-10-16T14:11:50;9.55;;;2.28;;
57087;SDS011;42965;52.846;6.614;2022-10-16T14:14:18;7.20;;;1.63;;
57087;SDS011;42965;52.846;6.614;2022-10-16T14:16:46;8.98;;;2.10;;
57087;SDS011;42965;52.846;6.614;2022-10-16T14:19:24;10.98;;;2.10;;
57087;SDS011;42965;52.846;6.614;2022-10-16T14:21:52;13.70;;;2.22;;
57087;SDS011;42965;52.846;6.614;2022-10-16T14:24:26;11.00;;;1.90;;
57087;SDS011;42965;52.846;6.614;2022-10-16T14:26:57;9.55;;;2.05;;
57087;SDS011;42965;52.846;6.614;2022-10-16T14:29:25;8.50;;;1.40;;
57087;SDS011;42965;52.846;6.614;2022-10-16T14:31:54;8.95;;;2.15;;
57087;SDS011;42965;52.846;6.614;2022-10-16T14:34:35;8.32;;;2.05;;
57087;SDS011;42965;52.846;6.614;2022-10-16T14:37:09;10.63;;;1.67;;
57087;SDS011;42965;52.846;6.614;2022-10-16T14:39:48;6.18;;;1.48;;
57087;SDS011;42965;52.846;6.614;2022-10-16T14:42:19;9.43;;;1.70;;
57087;SDS011;42965;52.846;6.614;2022-10-16T14:44:50;11.98;;;2.42;;
57087;SDS011;42965;52.846;6.614;2022-10-16T14:47:21;9.52;;;1.92;;
57087;SDS011;42965;52.846;6.614;2022-10-16T14:49:51;5.57;;;1.75;;
57087;SDS011;42965;52.846;6.614;2022-10-16T14:52:20;8.98;;;2.13;;
57087;SDS011;42965;52.846;6.614;2022-10-16T14:54:50;7.53;;;1.70;;
57087;SDS011;42965;52.846;6.614;2022-10-16T14:57:21;10.63;;;2.50;;
57087;SDS011;42965;52.846;6.614;2022-10-16T14:59:53;11.65;;;3.08;;
57087;SDS011;42965;52.846;6.614;2022-10-16T15:04:57;10.10;;;1.83;;
57087;SDS011;42965;52.846;6.614;2022-10-16T15:07:28;12.77;;;2.38;;
57087;SDS011;42965;52.846;6.614;2022-10-16T15:09:54;9.75;;;2.20;;
57087;SDS011;42965;52.846;6.614;2022-10-16T15:12:22;8.52;;;2.05;;
57087;SDS011;42965;52.846;6.614;2022-10-16T15:14:48;10.93;;;2.45;;
57087;SDS011;42965;52.846;6.614;2022-10-16T15:17:15;9.90;;;2.92;;
57087;SDS011;42965;52.846;6.614;2022-10-16T15:19:42;7.50;;;2.15;;
57087;SDS011;42965;52.846;6.614;2022-10-16T15:22:10;13.98;;;2.33;;
57087;SDS011;42965;52.846;6.614;2022-10-16T15:24:37;11.45;;;2.15;;
57087;SDS011;42965;52.846;6.614;2022-10-16T15:27:03;11.23;;;1.65;;
57087;SDS011;42965;52.846;6.614;2022-10-16T15:29:29;9.02;;;2.03;;
57087;SDS011;42965;52.846;6.614;2022-10-16T15:31:56;8.45;;;2.33;;
57087;SDS011;42965;52.846;6.614;2022-10-16T15:34:22;7.43;;;1.70;;
57087;SDS011;42965;52.846;6.614;2022-10-16T15:36:49;8.02;;;3.45;;
57087;SDS011;42965;52.846;6.614;2022-10-16T15:39:17;10.20;;;4.10;;
57087;SDS011;42965;52.846;6.614;2022-10-16T15:41:45;17.52;;;7.57;;
57087;SDS011;42965;52.846;6.614;2022-10-16T15:44:17;12.45;;;6.13;;
57087;SDS011;42965;52.846;6.614;2022-10-16T15:46:43;11.27;;;5.05;;
57087;SDS011;42965;52.846;6.614;2022-10-16T15:49:12;9.63;;;4.25;;
57087;SDS011;42965;52.846;6.614;2022-10-16T15:51:39;9.10;;;2.63;;
57087;SDS011;42965;52.846;6.614;2022-10-16T15:54:06;9.25;;;2.63;;
57087;SDS011;42965;52.846;6.614;2022-10-16T15:56:33;10.73;;;2.75;;
57087;SDS011;42965;52.846;6.614;2022-10-16T15:59:02;10.85;;;2.30;;
57087;SDS011;42965;52.846;6.614;2022-10-16T16:01:31;10.68;;;2.55;;
57087;SDS011;42965;52.846;6.614;2022-10-16T16:04:01;9.98;;;2.78;;
57087;SDS011;42965;52.846;6.614;2022-10-16T16:06:27;10.40;;;4.15;;
57087;SDS011;42965;52.846;6.614;2022-10-16T16:08:54;9.95;;;2.97;;
57087;SDS011;42965;52.846;6.614;2022-10-16T16:11:20;9.80;;;3.58;;
57087;SDS011;42965;52.846;6.614;2022-10-16T16:13:49;5.95;;;2.47;;
57087;SDS011;42965;52.846;6.614;2022-10-16T16:16:15;9.38;;;2.83;;
57087;SDS011;42965;52.846;6.614;2022-10-16T16:18:43;10.00;;;2.67;;
57087;SDS011;42965;52.846;6.614;2022-10-16T16:21:12;8.48;;;2.88;;
57087;SDS011;42965;52.846;6.614;2022-10-16T16:23:39;7.30;;;3.05;;
57087;SDS011;42965;52.846;6.614;2022-10-16T16:26:06;16.27;;;3.95;;
57087;SDS011;42965;52.846;6.614;2022-10-16T16:28:41;11.43;;;3.53;;
57087;SDS011;42965;52.846;6.614;2022-10-16T16:31:08;7.78;;;2.80;;
57087;SDS011;42965;52.846;6.614;2022-10-16T16:33:35;11.63;;;2.85;;
57087;SDS011;42965;52.846;6.614;2022-10-16T16:36:03;8.65;;;1.98;;
57087;SDS011;42965;52.846;6.614;2022-10-16T16:38:32;12.93;;;2.90;;